• Join FlightAware (Why Join?)
  • Login
  • US Flag 
10:49AM EDT


 

Airport Tracker/Info


-or-


 

Live Flight TrackerFlight Track Log ✈ AVA17 ✈ 07-Sep-2013 ✈ LEMD / MAD - SKMD / EOH

Flight Track Log - Related Links

Times and Time Zones

All times are in EDT time to prevent confusion due to time zone crossing. See the AVA17 flight status page for this flight to view local times or setup timezone preferences in your user account.

Time Position Orientation Groundspeed Altitude Reporting Facility
EDT Latitude Longitude Course Direction KTS MPH feet Rate Location/Type
11:12AM 40.4630 -3.5540 141° Southeast 185 213 2,000  Level FlightAware
11:12AM 40.4500 -3.5410 143° Southeast 179 206 2,900 2,400 Climbing FlightAware
11:12AM 40.4370 -3.5280 143° Southeast 186 214 3,600 2,040 Climbing FlightAware
11:13AM 40.4210 -3.5120 143° Southeast 181 208 4,400 1,740 Climbing FlightAware
11:13AM 40.4070 -3.4970 141° Southeast 192 221 4,900 1,620 Climbing FlightAware
11:13AM 40.3930 -3.4830 143° Southeast 192 221 5,500 1,320 Climbing FlightAware
11:14AM 40.3800 -3.4700 143° Southeast 207 238 5,700 780 Climbing FlightAware
11:14AM 40.3650 -3.4550 143° Southeast 231 266 6,000 900 Climbing FlightAware
11:14AM 40.3470 -3.4360 141° Southeast 255 293 6,300 1,200 Climbing FlightAware
11:15AM 40.3270 -3.4170 144° Southeast 272 313 6,800 1,980 Climbing FlightAware
11:15AM 40.3110 -3.4000 141° Southeast 277 319 7,500 2,220 Climbing FlightAware
11:15AM 40.2940 -3.3850 146° Southeast 281 323 8,000 2,100 Climbing FlightAware
11:15AM 40.2890 -3.3830 163° South 279 321 8,200 3,000 Climbing FlightAware
11:15AM 40.2780 -3.3810 172° South 277 319 8,600 2,520 Climbing FlightAware
11:16AM 40.2560 -3.3890 196° South 267 307 9,400 2,280 Climbing FlightAware
11:16AM 40.2380 -3.4010 207° Southwest 281 323 9,900 1,620 Climbing FlightAware
11:16AM 40.2030 -3.4250 208° Southwest 299 344 10,600 1,440 Climbing FlightAware
11:17AM 40.1950 -3.4390 233° Southwest 298 343 10,900 1,140 Climbing FlightAware
11:17AM 40.1780 -3.5140 253° West 334 384 11,600 1,200 Climbing FlightAware
11:18AM 40.1610 -3.5960 255° West 364 419 12,500 1,800 Climbing FlightAware
11:19AM 40.1450 -3.6690 254° West 370 426 13,800 2,100 Climbing FlightAware
11:19AM 40.1290 -3.7480 255° West 376 433 15,000 2,040 Climbing FlightAware
11:20AM 40.1140 -3.8150 254° West 380 437 16,100 1,980 Climbing FlightAware
11:20AM 40.0990 -3.8890 255° West 383 441 17,200 1,860 Climbing FlightAware
11:21AM 40.0790 -3.9800 254° West 391 450 18,400 1,740 Climbing FlightAware
11:21AM 40.0620 -4.0610 255° West 397 457 19,400 1,620 Climbing FlightAware
11:22AM 40.0460 -4.1330 254° West 402 463 20,200 1,620 Climbing FlightAware
11:23AM 40.0270 -4.2260 255° West 409 471 21,300 1,620 Climbing FlightAware
11:23AM 40.0110 -4.2990 254° West 413 475 22,100 1,380 Climbing FlightAware
11:24AM 39.9900 -4.3930 254° West 421 484 22,900 1,260 Climbing FlightAware
11:24AM 39.9740 -4.4690 255° West 425 489 23,600 1,140 Climbing FlightAware
11:25AM 39.9520 -4.5660 254° West 431 496 24,300 1,020 Climbing FlightAware
11:25AM 39.9350 -4.6430 254° West 437 503 24,800 1,200 Climbing FlightAware
11:26AM 39.9100 -4.7570 254° West 438 504 25,800 1,320 Climbing FlightAware
11:27AM 39.8900 -4.8460 254° West 439 505 26,600 1,260 Climbing FlightAware
11:27AM 39.8710 -4.9360 255° West 441 507 27,300 1,200 Climbing FlightAware
11:28AM 39.8500 -5.0260 253° West 441 507 28,000 1,080 Climbing FlightAware
11:29AM 39.8280 -5.1280 254° West 444 511 28,700 960 Climbing FlightAware
11:29AM 39.8070 -5.2190 253° West 444 511 29,200 1,020 Climbing FlightAware
11:30AM 39.7840 -5.3200 254° West 441 507 30,000 1,080 Climbing FlightAware
11:30AM 39.7680 -5.3910 254° West 440 506 30,500 900 Climbing FlightAware
11:31AM 39.7460 -5.4850 253° West 440 506 31,000 360 Climbing FlightAware
11:32AM 39.7230 -5.5860 254° West 440 506 31,000  Level FlightAware
11:32AM 39.7060 -5.6630 254° West 442 509 31,000  Level FlightAware
11:33AM 39.6850 -5.7540 253° West 443 510 31,000  Level FlightAware
11:33AM 39.6620 -5.8510 253° West 443 510 31,000  Level FlightAware
11:34AM 39.6440 -5.9300 254° West 444 511 31,000  Level FlightAware
11:35AM 39.6200 -6.0300 253° West 443 510 31,000  Level FlightAware
11:35AM 39.6010 -6.1140 254° West 440 506 31,000  Level FlightAware
11:36AM 39.5760 -6.2110 252° West 440 506 31,000  Level FlightAware
11:36AM 39.5540 -6.2950 251° West 442 509 31,000  Level FlightAware
11:37AM 39.5270 -6.4050 252° West 443 510 31,000 240 Level FlightAware
11:38AM 39.5250 -6.5250 269° West 446 513 31,400 840 Climbing FlightAware
11:38AM 39.5230 -6.6280 269° West 440 506 32,200 1,200 Climbing FlightAware
11:39AM 39.5210 -6.7120 268° West 437 503 32,800 660 Climbing FlightAware
11:40AM 39.5190 -6.8050 268° West 438 504 33,000 120 Climbing FlightAware
11:40AM 39.5160 -6.8980 268° West 439 505 33,000  Level FlightAware
11:41AM 39.5130 -6.9870 268° West 437 503 33,000  Level FlightAware
11:41AM 39.5110 -7.0770 268° West 436 502 33,000  Level FlightAware
11:42AM 39.5080 -7.1560 267° West 436 502 33,000  Level FlightAware
11:42AM 39.5050 -7.2600 268° West 435 501 33,000  Level FlightAware
11:43AM 39.5020 -7.3490 268° West 437 503 33,000  Level FlightAware
11:44AM 39.4990 -7.4440 268° West 437 503 33,000  Level FlightAware
11:44AM 39.4960 -7.5350 268° West 439 505 33,000  Level FlightAware
11:45AM 39.4930 -7.6250 268° West 438 504 33,000  Level FlightAware
11:45AM 39.4900 -7.7140 268° West 440 506 33,000  Level FlightAware
11:46AM 39.4870 -7.8070 268° West 439 505 33,000  Level FlightAware
11:47AM 39.4830 -7.9000 267° West 440 506 33,000  Level FlightAware
11:47AM 39.4800 -7.9930 268° West 441 507 33,000  Level FlightAware
11:48AM 39.4760 -8.0870 267° West 442 509 33,000  Level FlightAware
11:48AM 39.4720 -8.1920 267° West 442 509 33,000  Level FlightAware
11:49AM 39.4680 -8.2820 267° West 443 510 33,000  Level FlightAware
11:50AM 39.4640 -8.3830 267° West 442 509 33,000  Level FlightAware
11:50AM 39.4610 -8.4670 267° West 443 510 33,000  Level FlightAware
11:51AM 39.4570 -8.5620 267° West 444 511 33,000  Level FlightAware
11:51AM 39.4530 -8.6520 267° West 445 512 33,000 60 Level FlightAware
11:52AM 39.4490 -8.7480 267° West 446 513 33,100 420 Climbing FlightAware
11:52AM 39.4440 -8.8420 266° West 448 516 33,500 720 Climbing FlightAware
11:53AM 39.4390 -8.9480 267° West 451 519 34,000 660 Climbing FlightAware
11:54AM 39.4360 -9.0290 267° West 456 525 34,300 720 Climbing FlightAware
11:54AM 39.4300 -9.1510 266° West 459 528 34,900 660 Climbing FlightAware
11:55AM 39.4240 -9.2620 266° West 466 536 35,300 600 Climbing FlightAware
11:56AM 39.4200 -9.3590 267° West 469 540 35,700 840 Climbing FlightAware
11:56AM 39.4150 -9.4550 266° West 467 537 36,300 900 Climbing FlightAware
11:57AM 39.4100 -9.5540 266° West 467 537 36,800 600 Climbing FlightAware
11:57AM 39.4050 -9.6510 266° West 471 542 37,000 180 Climbing FlightAware
11:58AM 39.4000 -9.7370 266° West 473 544 37,000 420 Level FlightAware
11:59AM 39.3940 -9.8500 266° West 471 542 37,500 780 Climbing FlightAware
11:59AM 39.3890 -9.9470 266° West 469 540 38,000 420 Climbing FlightAware
12:00PM 39.3830 -10.0460 266° West 473 544 38,000  Level FlightAware
12:00PM 39.3780 -10.1420 266° West 473 544 38,000  Level FlightAware
12:01PM 39.3720 -10.2430 266° West 471 542 38,000  Level FlightAware
12:02PM 39.3660 -10.3530 266° West 471 542 38,000  Level FlightAware
12:02PM 39.3590 -10.4650 265° West 469 540 38,000  Level FlightAware
12:03PM 39.3530 -10.5630 266° West 468 539 38,000  Level FlightAware
12:03PM 39.3480 -10.6460 266° West 467 537 38,000  Level FlightAware
12:04PM 39.3420 -10.7430 265° West 466 536 38,000  Level FlightAware
12:05PM 39.3360 -10.8540 266° West 466 536 38,000  Level FlightAware
12:05PM 39.3300 -10.9360 265° West 466 536 38,000  Level FlightAware
12:06PM 39.3240 -11.0320 265° West 467 537 38,000  Level FlightAware
12:06PM 39.3170 -11.1450 265° West 469 540 38,000  Level FlightAware
12:07PM 39.3100 -11.2430 265° West 470 541 38,000  Level FlightAware
12:07PM 39.3050 -11.3240 265° West 472 543 38,000  Level FlightAware
12:08PM 39.2980 -11.4230 265° West 476 548 38,000  Level FlightAware
12:09PM 39.2910 -11.5360 265° West 479 551 38,000  Level FlightAware
12:09PM 39.2840 -11.6400 265° West 481 554 38,000  Level FlightAware
12:10PM 39.2780 -11.7260 265° West 484 557 38,000  Level FlightAware
12:10PM 39.2710 -11.8210 265° West 485 558 38,000  Level FlightAware
12:11PM 39.2630 -11.9260 264° West 487 560 38,000  Level FlightAware
12:11PM 39.2560 -12.0240 265° West 486 559 38,000  Level FlightAware
12:12PM 39.2500 -12.1140 265° West 486 559 38,000  Level FlightAware
12:13PM 39.2420 -12.2220 265° West 486 559 38,000  Level FlightAware
12:13PM 39.2340 -12.3240 264° West 485 558 38,000  Level FlightAware
12:14PM 39.2260 -12.4250 264° West 485 558 38,000  Level FlightAware
12:14PM 39.2180 -12.5260 264° West 484 557 38,000  Level FlightAware
12:15PM 39.2080 -12.6600 265° West 484 557 38,000  Level FlightAware
12:16PM 39.1960 -12.8060 264° West 484 557 38,000  Level FlightAware
12:17PM 39.1870 -12.9200 264° West 485 558 38,000  Level FlightAware
12:17PM 39.1780 -13.0310 264° West 487 560 38,000  Level FlightAware
12:18PM 39.1690 -13.1470 264° West 487 560 38,000  Level FlightAware
12:19PM 39.1610 -13.2450 264° West 487 560 38,000  Level FlightAware
12:19PM 39.1540 -13.3280 264° West 487 560 38,000  Level FlightAware
12:20PM 39.1460 -13.4220 264° West 487 560 38,000  Level FlightAware
12:20PM 39.1390 -13.5050 264° West 487 560 38,000  Level FlightAware
12:21PM 39.1320 -13.5940 264° West 487 560 38,000  Level FlightAware
12:22PM 39.1250 -13.6870 264° West 487 560 38,000  Level FlightAware
12:22PM 39.1170 -13.7750 263° West 487 560 38,000  Level FlightAware
12:23PM 39.1100 -13.8710 265° West 487 560 38,000  Level FlightAware
12:23PM 39.1020 -13.9590 263° West 487 560 38,000  Level FlightAware
12:24PM 39.0760 -14.2020 262° West 488 562 38,000  Level FlightAware
12:25PM 39.0650 -14.3350 264° West 488 562 38,000  Level FlightAware
12:26PM 39.0580 -14.4260 264° West 488 562 38,000  Level FlightAware
12:26PM 39.0430 -14.5590 262° West 486 559 38,000  Level FlightAware
12:27PM 39.0310 -14.6880 263° West 486 559 38,000  Level FlightAware
12:28PM 39.0230 -14.7860 264° West 486 559 38,000  Level FlightAware
12:28PM 39.0160 -14.8740 264° West 486 559 38,000  Level FlightAware
12:29PM 39.0090 -14.9600 264° West 486 559 38,000  Level FlightAware
12:29PM 39.0010 -15.0480 263° West 486 559 38,000  Level FlightAware
12:30PM 38.9940 -15.1360 264° West 486 559 38,000  Level FlightAware
12:31PM 38.9870 -15.2240 264° West 486 559 38,000  Level FlightAware
12:31PM 38.9800 -15.3120 264° West 486 559 38,000  Level FlightAware
12:32PM 38.9720 -15.4050 264° West 486 559 38,000  Level FlightAware
12:32PM 38.9650 -15.4930 264° West 486 559 38,000  Level FlightAware
12:33PM 38.9580 -15.5810 264° West 486 559 38,000  Level FlightAware
12:34PM 38.9510 -15.6690 264° West 486 559 38,000  Level FlightAware
12:34PM 38.9430 -15.7570 263° West 486 559 38,000  Level FlightAware
12:35PM 38.9360 -15.8420 264° West 486 559 38,000  Level FlightAware
12:35PM 38.9290 -15.9330 264° West 486 559 38,000  Level FlightAware
12:36PM 38.9220 -16.0200 264° West 486 559 38,000  Level FlightAware
12:37PM 38.9140 -16.1110 264° West 486 559 38,000  Level FlightAware
12:39PM 38.8453 -16.4273 255° West  Level FlightAware Approximate
12:40PM 38.8094 -16.5906 254° West  Level FlightAware Approximate
12:41PM 38.7733 -16.7538 254° West  Level FlightAware Approximate
12:42PM 38.7370 -16.9168 254° West  Level FlightAware Approximate
12:43PM 38.7005 -17.0797 254° West  Level FlightAware Approximate
12:44PM 38.6637 -17.2423 254° West  Level FlightAware Approximate
12:45PM 38.6267 -17.4049 254° West  Level FlightAware Approximate
12:46PM 38.5895 -17.5672 254° West  Level FlightAware Approximate
12:47PM 38.5521 -17.7294 254° West  Level FlightAware Approximate
12:48PM 38.5144 -17.8914 253° West  Level FlightAware Approximate
12:49PM 38.4765 -18.0532 253° West  Level FlightAware Approximate
12:50PM 38.4384 -18.2149 253° West  Level FlightAware Approximate
12:51PM 38.4001 -18.3764 253° West  Level FlightAware Approximate
12:52PM 38.3615 -18.5378 253° West  Level FlightAware Approximate
12:53PM 38.3227 -18.6989 253° West  Level FlightAware Approximate
12:54PM 38.2837 -18.8599 253° West  Level FlightAware Approximate
12:55PM 38.2445 -19.0207 253° West  Level FlightAware Approximate
12:56PM 38.2051 -19.1813 253° West  Level FlightAware Approximate
12:57PM 38.1654 -19.3418 253° West  Level FlightAware Approximate
12:58PM 38.1255 -19.5021 252° West  Level FlightAware Approximate
12:59PM 38.0854 -19.6622 252° West  Level FlightAware Approximate
01:00PM 38.0451 -19.8221 252° West  Level FlightAware Approximate
01:01PM 38.0046 -19.9819 252° West  Level FlightAware Approximate
01:02PM 37.9532 -20.1375 247° West  Level FlightAware Approximate
01:03PM 37.9007 -20.2913 247° West  Level FlightAware Approximate
01:03PM 37.7600 -20.7000 247° West 492 566 38,000  Level FlightAware
01:04PM 37.7220 -20.8080 246° West 492 566 38,000  Level FlightAware
01:05PM 37.6920 -20.8950 246° West 492 566 38,000  Level FlightAware
01:05PM 37.6630 -20.9760 246° West 492 566 38,000  Level FlightAware
01:06PM 37.6350 -21.0560 246° West 492 566 38,000  Level FlightAware
01:07PM 37.6070 -21.1360 246° West 492 566 38,000  Level FlightAware
01:07PM 37.5390 -21.3280 246° West 491 565 38,000  Level FlightAware
01:08PM 37.5080 -21.4150 246° West 491 565 38,000  Level FlightAware
01:08PM 37.4710 -21.5200 246° West 491 565 38,000  Level FlightAware
01:09PM 37.4320 -21.6300 246° West 489 563 38,000  Level FlightAware
01:10PM 37.4100 -21.6900 245° Southwest 490 564 38,000  Level FlightAware
01:10PM 37.3750 -21.7850 245° Southwest 490 564 38,000  Level FlightAware
01:11PM 37.3290 -21.9150 246° West 490 564 38,000  Level FlightAware
01:12PM 37.2900 -22.0240 246° West 490 564 38,000  Level FlightAware
01:13PM 37.2390 -22.1610 245° Southwest 489 563 38,000  Level FlightAware
01:13PM 37.2150 -22.2300 246° West 488 562 38,000  Level FlightAware
01:14PM 37.1750 -22.3370 245° Southwest 487 560 38,000  Level FlightAware
01:15PM 37.1220 -22.4820 245° Southwest 485 558 38,000  Level FlightAware
01:15PM 37.0930 -22.5600 245° Southwest 484 557 38,000  Level FlightAware
01:16PM 37.0530 -22.6680 245° Southwest 483 556 38,000  Level FlightAware
01:16PM 37.0250 -22.7440 245° Southwest 485 558 38,000  Level FlightAware
01:17PM 36.9850 -22.8510 245° Southwest 486 559 38,000  Level FlightAware
01:18PM 36.9420 -22.9670 245° Southwest 486 559 38,000  Level FlightAware
01:19PM 36.9020 -23.0730 245° Southwest 484 557 38,000  Level FlightAware
01:19PM 36.8640 -23.1730 245° Southwest 483 556 38,000  Level FlightAware
01:20PM 36.8280 -23.2690 245° Southwest 483 556 38,000  Level FlightAware
01:20PM 36.7960 -23.3530 245° Southwest 484 557 38,000  Level FlightAware
01:21PM 36.7550 -23.4620 245° Southwest 484 557 38,000  Level FlightAware
01:21PM 36.7310 -23.5240 244° Southwest 484 557 38,000  Level FlightAware
01:22PM 36.6830 -23.6510 245° Southwest 483 556 38,000  Level FlightAware
01:23PM 36.6440 -23.7530 245° Southwest 483 556 38,000  Level FlightAware
01:23PM 36.6070 -23.8490 244° Southwest 482 555 38,000  Level FlightAware
01:24PM 36.5730 -23.9360 244° Southwest 481 554 38,000  Level FlightAware
01:25PM 36.5390 -24.0240 244° Southwest 481 554 38,000  Level FlightAware
01:25PM 36.4960 -24.1350 244° Southwest 483 556 38,000  Level FlightAware
01:26PM 36.4680 -24.2080 245° Southwest 485 558 38,000  Level FlightAware
01:26PM 36.4360 -24.2890 244° Southwest 486 559 38,000  Level FlightAware
01:27PM 36.3880 -24.4130 244° Southwest 485 558 38,000  Level FlightAware
01:28PM 36.3530 -24.5030 244° Southwest 484 557 38,000  Level FlightAware
01:28PM 36.3190 -24.5870 243° Southwest 484 557 38,000  Level FlightAware
01:29PM 36.2750 -24.7000 244° Southwest 485 558 38,000  Level FlightAware
01:30PM 36.2390 -24.7890 243° Southwest 485 558 38,000  Level FlightAware
01:30PM 36.1950 -24.9010 244° Southwest 485 558 38,000  Level FlightAware
01:31PM 36.1610 -24.9860 244° Southwest 485 558 38,000  Level FlightAware
01:32PM 36.1210 -25.0850 243° Southwest 481 554 38,000  Level FlightAware
01:32PM 36.0960 -25.1490 244° Southwest 481 554 38,000  Level FlightAware
01:33PM 36.0510 -25.2610 244° Southwest 481 554 38,000  Level FlightAware
01:34PM 36.0120 -25.3570 243° Southwest 480 552 38,000  Level FlightAware
01:34PM 35.9720 -25.4570 244° Southwest 481 554 38,000  Level FlightAware
01:35PM 35.9390 -25.5390 244° Southwest 481 554 38,000  Level FlightAware
01:35PM 35.9020 -25.6290 243° Southwest 481 554 38,000  Level FlightAware
01:36PM 35.8670 -25.7160 244° Southwest 480 552 38,000  Level FlightAware
01:37PM 35.8340 -25.7940 242° Southwest 480 552 38,000  Level FlightAware
01:37PM 35.7970 -25.8860 244° Southwest 480 552 38,000  Level FlightAware
01:38PM 35.7570 -25.9840 243° Southwest 481 554 38,000  Level FlightAware
01:38PM 35.7200 -26.0720 243° Southwest 481 554 38,000  Level FlightAware
01:39PM 35.6800 -26.1690 243° Southwest 482 555 38,000  Level FlightAware
01:40PM 35.6590 -26.2210 244° Southwest 484 557 38,000  Level FlightAware
01:40PM 35.6140 -26.3280 243° Southwest 480 552 38,000  Level FlightAware
01:41PM 35.5730 -26.4270 243° Southwest 478 550 38,000  Level FlightAware
01:42PM 35.5280 -26.5350 243° Southwest 476 548 38,000  Level FlightAware
01:42PM 35.4920 -26.6200 243° Southwest 475 547 38,000  Level FlightAware
01:43PM 35.4590 -26.7000 243° Southwest 475 547 38,000  Level FlightAware
01:43PM 35.4380 -26.7490 242° Southwest 479 551 38,000  Level FlightAware
01:44PM 35.3890 -26.8650 243° Southwest 474 545 38,000  Level FlightAware
01:44PM 35.3520 -26.9510 242° Southwest 474 545 38,000  Level FlightAware
01:45PM 35.3150 -27.0400 243° Southwest 474 545 38,000  Level FlightAware
01:46PM 35.2790 -27.1230 242° Southwest 474 545 38,000  Level FlightAware
01:46PM 35.2420 -27.2120 243° Southwest 475 547 38,000  Level FlightAware
01:47PM 35.2020 -27.3050 242° Southwest 476 548 38,000  Level FlightAware
01:47PM 35.1710 -27.3780 243° Southwest 480 552 38,000  Level FlightAware
01:48PM 35.1350 -27.4600 242° Southwest 480 552 38,000  Level FlightAware
01:49PM 35.0930 -27.5570 242° Southwest 479 551 38,000  Level FlightAware
01:49PM 35.0630 -27.6270 242° Southwest 479 551 38,000  Level FlightAware
01:50PM 35.0210 -27.7250 242° Southwest 478 550 38,000  Level FlightAware
01:50PM 34.9800 -27.8190 242° Southwest 477 549 38,000  Level FlightAware
01:51PM 34.9450 -27.9000 242° Southwest 477 549 38,000  Level FlightAware
01:52PM 34.9080 -27.9840 242° Southwest 477 549 38,000  Level FlightAware
01:52PM 34.8710 -28.0690 242° Southwest 479 551 38,000  Level FlightAware
01:53PM 34.8400 -28.1380 241° Southwest 479 551 38,000  Level FlightAware
01:53PM 34.8040 -28.2220 242° Southwest 478 550 38,000  Level FlightAware
01:54PM 34.7710 -28.2960 242° Southwest 478 550 38,000  Level FlightAware
01:55PM 34.7250 -28.3990 242° Southwest 477 549 38,000  Level FlightAware
01:55PM 34.6880 -28.4820 242° Southwest 476 548 38,000  Level FlightAware
01:56PM 34.6470 -28.5750 242° Southwest 476 548 38,000  Level FlightAware
01:57PM 34.6170 -28.6430 242° Southwest 476 548 38,000  Level FlightAware
01:57PM 34.5530 -28.7870 242° Southwest 478 550 38,000  Level FlightAware
01:58PM 34.5230 -28.8540 241° Southwest 478 550 38,000  Level FlightAware
01:59PM 34.4910 -28.9240 241° Southwest 478 550 38,000  Level FlightAware
01:59PM 34.4300 -29.0600 241° Southwest 478 550 38,000  Level FlightAware
02:00PM 34.3910 -29.1460 241° Southwest 477 549 38,000  Level FlightAware
02:01PM 34.3580 -29.2170 241° Southwest 477 549 38,000  Level FlightAware
02:01PM 34.3640 -29.2050 59° Northeast 150 173 38,000  Level FlightAware
02:01PM 34.3260 -29.2910 242° Southwest 477 549 38,000  Level FlightAware
02:02PM 34.2690 -29.4150 241° Southwest 478 550 38,000  Level FlightAware
02:02PM 34.2400 -29.4790 241° Southwest 477 549 38,000  Level FlightAware
02:03PM 34.2020 -29.5620 241° Southwest 477 549 38,000  Level FlightAware
02:04PM 34.1730 -29.6250 241° Southwest 476 548 38,000  Level FlightAware
02:04PM 34.1140 -29.7530 241° Southwest 475 547 38,000  Level FlightAware
02:05PM 34.0880 -29.8100 241° Southwest 475 547 38,000  Level FlightAware
02:05PM 34.0520 -29.8890 241° Southwest 475 547 38,000  Level FlightAware
02:06PM 34.0180 -29.9620 241° Southwest 475 547 38,000  Level FlightAware
02:07PM 33.9870 -30.0290 241° Southwest 475 547 38,000  Level FlightAware
02:07PM 33.9550 -30.1000 241° Southwest 475 547 38,000  Level FlightAware
02:08PM 34.0000 -30.0000 253° West 466 536 38,000  Level ETMS Enhanced Traffic Management System
02:08PM 33.9220 -30.1710 241° Southwest 475 547 38,000  Level FlightAware
02:08PM 33.8890 -30.2430 241° Southwest 475 547 38,000  Level FlightAware
02:09PM 33.8550 -30.3160 241° Southwest 475 547 38,000  Level FlightAware
02:10PM 33.8130 -30.4070 241° Southwest 475 547 38,000  Level FlightAware
02:10PM 33.7800 -30.4790 241° Southwest 475 547 38,000  Level FlightAware
02:11PM 33.7480 -30.5480 241° Southwest 475 547 38,000  Level FlightAware
02:12PM 33.7160 -30.6190 242° Southwest 475 547 38,000  Level FlightAware
02:12PM 33.6830 -30.6900 241° Southwest 475 547 38,000  Level FlightAware
02:13PM 33.6490 -30.7620 240° Southwest 475 547 38,000  Level FlightAware
02:13PM 33.6170 -30.8330 252° West 475 547 38,000  Level FlightAware
02:14PM 33.6937 -31.1933 252° West 466 536 38,000  Level FlightAware Transoceanic
02:14PM 33.5840 -30.9040 241° Southwest 475 547 38,000  Level FlightAware
02:15PM 33.5510 -30.9760 241° Southwest 475 547 38,000  Level FlightAware
02:17PM 33.4548 -31.2428 247° West  Level Estimated
02:18PM 33.4021 -31.3881 247° West  Level Estimated
02:19PM 33.3492 -31.5332 246° West  Level Estimated
02:20PM 33.2962 -31.6781 246° West  Level Estimated
02:21PM 33.2430 -31.8229 246° West  Level Estimated
02:22PM 33.1896 -31.9675 246° West  Level Estimated
02:23PM 33.1360 -32.1119 246° West  Level Estimated
02:24PM 33.0823 -32.2561 246° West  Level Estimated
02:25PM 33.0284 -32.4001 246° West  Level Estimated
02:26PM 32.9744 -32.5440 246° West  Level Estimated
02:27PM 32.9202 -32.6877 246° West  Level Estimated
02:28PM 32.8658 -32.8312 246° West  Level Estimated
02:29PM 32.8112 -32.9746 246° West  Level Estimated
02:30PM 32.7565 -33.1177 246° West  Level Estimated
02:31PM 32.7017 -33.2607 246° West  Level Estimated
02:32PM 32.6466 -33.4035 245° Southwest  Level Estimated
02:33PM 32.5914 -33.5462 245° Southwest  Level Estimated
02:34PM 32.5361 -33.6886 245° Southwest  Level Estimated
02:35PM 32.4806 -33.8309 245° Southwest  Level Estimated
02:36PM 32.4249 -33.9730 245° Southwest  Level Estimated
02:37PM 32.3691 -34.1150 245° Southwest  Level Estimated
02:38PM 32.3131 -34.2567 245° Southwest  Level Estimated
02:39PM 32.2570 -34.3983 245° Southwest  Level Estimated
02:40PM 32.2006 -34.5397 245° Southwest  Level Estimated
02:41PM 32.1442 -34.6810 245° Southwest  Level Estimated
02:42PM 32.0876 -34.8220 245° Southwest  Level Estimated
02:43PM 32.0308 -34.9629 245° Southwest  Level Estimated
02:44PM 31.9739 -35.1036 245° Southwest  Level Estimated
02:45PM 31.9168 -35.2442 244° Southwest  Level Estimated
02:46PM 31.8595 -35.3845 244° Southwest  Level Estimated
02:47PM 31.8021 -35.5247 244° Southwest  Level Estimated
02:48PM 31.7446 -35.6647 244° Southwest  Level Estimated
02:49PM 31.6869 -35.8046 244° Southwest  Level Estimated
02:50PM 31.6290 -35.9443 244° Southwest  Level Estimated
02:51PM 31.5710 -36.0838 244° Southwest  Level Estimated
02:52PM 31.5129 -36.2231 244° Southwest  Level Estimated
02:53PM 31.4546 -36.3622 244° Southwest  Level Estimated
02:54PM 31.3961 -36.5012 244° Southwest  Level Estimated
02:55PM 31.3375 -36.6400 244° Southwest  Level Estimated
02:56PM 31.2787 -36.7786 244° Southwest  Level Estimated
02:57PM 31.2198 -36.9170 244° Southwest  Level Estimated
02:58PM 31.1608 -37.0553 244° Southwest  Level Estimated
02:59PM 31.1016 -37.1934 243° Southwest  Level Estimated
03:00PM 31.0422 -37.3314 243° Southwest  Level Estimated
03:01PM 30.9827 -37.4691 243° Southwest  Level Estimated
03:02PM 30.9231 -37.6067 243° Southwest  Level Estimated
03:03PM 30.8633 -37.7441 243° Southwest  Level Estimated
03:04PM 30.8034 -37.8814 243° Southwest  Level Estimated
03:05PM 30.7433 -38.0185 243° Southwest  Level Estimated
03:06PM 30.6831 -38.1554 243° Southwest  Level Estimated
03:07PM 30.6227 -38.2921 243° Southwest  Level Estimated
03:08PM 30.5622 -38.4287 243° Southwest  Level Estimated
03:09PM 30.5016 -38.5650 243° Southwest  Level Estimated
03:10PM 30.4408 -38.7013 243° Southwest  Level Estimated
03:11PM 30.3799 -38.8373 243° Southwest  Level Estimated
03:12PM 30.3188 -38.9732 243° Southwest  Level Estimated
03:13PM 30.2576 -39.1089 242° Southwest  Level Estimated
03:14PM 30.1962 -39.2444 242° Southwest  Level Estimated
03:15PM 30.1348 -39.3798 242° Southwest  Level Estimated
03:16PM 30.0731 -39.5150 242° Southwest  Level Estimated
03:17PM 30.0114 -39.6501 242° Southwest  Level Estimated
03:18PM 29.9494 -39.7850 242° Southwest  Level Estimated
03:19PM 29.8874 -39.9197 242° Southwest  Level Estimated
03:20PM 29.8252 -40.0542 242° Southwest  Level Estimated
03:20PM 31.0000 -40.0000 234° Southwest 478 550 38,000  Level New York Oceanic (ODAPS)
03:21PM 29.7629 -40.1885 242° Southwest  Level Estimated
03:22PM 29.7005 -40.3228 242° Southwest  Level Estimated
03:23PM 29.6379 -40.4568 242° Southwest  Level Estimated
03:24PM 29.5752 -40.5906 242° Southwest  Level Estimated
03:25PM 29.5123 -40.7243 242° Southwest  Level Estimated
03:26PM 30.1366 -41.3689 233° Southwest 478 550 38,000  Level FlightAware Transoceanic
03:27PM 30.0574 -41.4921 233° Southwest 478 550 38,000  Level FlightAware Transoceanic
03:28PM 29.9781 -41.6152 233° Southwest 478 550 38,000  Level FlightAware Transoceanic
03:29PM 29.8987 -41.7380 233° Southwest 478 550 38,000 1,620 Level FlightAware Transoceanic
03:29PM 31.0000 -40.0000 234° Southwest 478 550 40,000  Climbing New York Oceanic (ODAPS)
03:30PM 29.8192 -41.8607 233° Southwest 478 550 38,000 -1,140 Descending FlightAware Transoceanic
03:31PM 29.7395 -41.9832 233° Southwest 478 550 38,000  Level FlightAware Transoceanic
03:32PM 29.6597 -42.1054 233° Southwest 478 550 38,000  Level FlightAware Transoceanic
03:33PM 29.5799 -42.2275 233° Southwest 478 550 38,000  Level FlightAware Transoceanic
03:34PM 29.4999 -42.3494 233° Southwest 478 550 38,000 960 Level FlightAware Transoceanic
03:35PM 29.4198 -42.4711 233° Southwest 478 550 40,000 960 Climbing FlightAware Transoceanic
03:36PM 29.3396 -42.5926 233° Southwest 478 550 40,000  Level FlightAware Transoceanic
03:37PM 29.2593 -42.7139 233° Southwest 478 550 40,000  Level FlightAware Transoceanic
03:38PM 29.1789 -42.8350 233° Southwest 478 550 40,000  Level FlightAware Transoceanic
03:39PM 29.0983 -42.9559 233° Southwest 478 550 40,000  Level FlightAware Transoceanic
03:40PM 29.0177 -43.0766 233° Southwest 478 550 40,000  Level FlightAware Transoceanic
03:41PM 28.9369 -43.1972 233° Southwest 478 550 40,000  Level FlightAware Transoceanic
03:42PM 28.8561 -43.3176 232° Southwest 478 550 40,000  Level FlightAware Transoceanic
03:43PM 28.7751 -43.4377 232° Southwest 478 550 40,000  Level FlightAware Transoceanic
03:44PM 28.6940 -43.5577 232° Southwest 478 550 40,000  Level FlightAware Transoceanic
03:45PM 28.6129 -43.6775 232° Southwest 478 550 40,000  Level FlightAware Transoceanic
03:46PM 28.5316 -43.7971 232° Southwest 478 550 40,000  Level FlightAware Transoceanic
03:47PM 28.4502 -43.9166 232° Southwest 478 550 40,000  Level FlightAware Transoceanic
03:48PM 28.3687 -44.0358 232° Southwest 478 550 40,000  Level FlightAware Transoceanic
03:49PM 28.2871 -44.1549 232° Southwest 478 550 40,000  Level FlightAware Transoceanic
03:50PM 28.2054 -44.2738 232° Southwest 478 550 40,000  Level FlightAware Transoceanic
03:51PM 28.1236 -44.3924 232° Southwest 478 550 40,000  Level FlightAware Transoceanic
03:52PM 28.0417 -44.5110 232° Southwest 478 550 40,000  Level FlightAware Transoceanic
03:53PM 27.9597 -44.6293 232° Southwest 478 550 40,000  Level FlightAware Transoceanic
03:54PM 27.8776 -44.7475 232° Southwest 478 550 40,000  Level FlightAware Transoceanic
03:55PM 27.7954 -44.8654 232° Southwest 478 550 40,000  Level FlightAware Transoceanic
03:56PM 27.7131 -44.9832 232° Southwest 478 550 40,000  Level FlightAware Transoceanic
03:57PM 27.6307 -45.1009 232° Southwest 478 550 40,000  Level FlightAware Transoceanic
03:58PM 27.5482 -45.2183 232° Southwest 478 550 40,000  Level FlightAware Transoceanic
03:59PM 27.4656 -45.3356 232° Southwest 478 550 40,000  Level FlightAware Transoceanic
04:00PM 27.3829 -45.4527 231° Southwest 478 550 40,000  Level FlightAware Transoceanic
04:01PM 27.3001 -45.5696 231° Southwest 478 550 40,000  Level FlightAware Transoceanic
04:02PM 27.2172 -45.6863 231° Southwest 478 550 40,000  Level FlightAware Transoceanic
04:03PM 27.1342 -45.8029 231° Southwest 478 550 40,000  Level FlightAware Transoceanic
04:04PM 27.0511 -45.9193 231° Southwest 478 550 40,000  Level FlightAware Transoceanic
04:05PM 26.9680 -46.0355 231° Southwest 478 550 40,000  Level FlightAware Transoceanic
04:06PM 26.8847 -46.1516 231° Southwest 478 550 40,000  Level FlightAware Transoceanic
04:07PM 26.8013 -46.2674 231° Southwest 478 550 40,000  Level FlightAware Transoceanic
04:08PM 26.7178 -46.3832 231° Southwest 478 550 40,000  Level FlightAware Transoceanic
04:09PM 26.6343 -46.4987 231° Southwest 478 550 40,000  Level FlightAware Transoceanic
04:10PM 26.5506 -46.6141 231° Southwest 478 550 40,000  Level FlightAware Transoceanic
04:11PM 26.4669 -46.7293 231° Southwest 478 550 40,000  Level FlightAware Transoceanic
04:12PM 26.3831 -46.8443 231° Southwest 478 550 40,000  Level FlightAware Transoceanic
04:13PM 26.2991 -46.9592 231° Southwest 478 550 40,000  Level FlightAware Transoceanic
04:14PM 26.2151 -47.0739 231° Southwest 478 550 40,000  Level FlightAware Transoceanic
04:15PM 26.1310 -47.1884 231° Southwest 478 550 40,000  Level FlightAware Transoceanic
04:16PM 26.0468 -47.3028 231° Southwest 478 550 40,000  Level FlightAware Transoceanic
04:17PM 25.9625 -47.4170 231° Southwest 478 550 40,000  Level FlightAware Transoceanic
04:18PM 25.8781 -47.5311 231° Southwest 478 550 40,000  Level FlightAware Transoceanic
04:19PM 25.7936 -47.6449 230° Southwest 478 550 40,000  Level FlightAware Transoceanic
04:20PM 25.7091 -47.7587 230° Southwest 478 550 40,000  Level FlightAware Transoceanic
04:21PM 25.6244 -47.8722 230° Southwest 478 550 40,000  Level FlightAware Transoceanic
04:22PM 25.5397 -47.9856 230° Southwest 478 550 40,000  Level FlightAware Transoceanic
04:23PM 25.4549 -48.0988 230° Southwest 478 550 40,000  Level FlightAware Transoceanic
04:24PM 25.3700 -48.2119 230° Southwest 478 550 40,000  Level FlightAware Transoceanic
04:25PM 25.2850 -48.3248 230° Southwest 478 550 40,000  Level FlightAware Transoceanic
04:26PM 25.1999 -48.4376 230° Southwest 478 550 40,000  Level FlightAware Transoceanic
04:27PM 25.1147 -48.5502 230° Southwest 478 550 40,000  Level FlightAware Transoceanic
04:28PM 25.0295 -48.6626 230° Southwest 478 550 40,000  Level FlightAware Transoceanic
04:29PM 24.9441 -48.7749 230° Southwest 478 550 40,000  Level FlightAware Transoceanic
04:30PM 24.8587 -48.8871 230° Southwest 478 550 40,000  Level FlightAware Transoceanic
04:31PM 24.7732 -48.9991 230° Southwest 478 550 40,000  Level FlightAware Transoceanic
04:32PM 24.6876 -49.1109 230° Southwest 478 550 40,000  Level FlightAware Transoceanic
04:33PM 24.6020 -49.2225 230° Southwest 478 550 40,000  Level FlightAware Transoceanic
04:34PM 24.5162 -49.3341 230° Southwest 478 550 40,000  Level FlightAware Transoceanic
04:35PM 24.4304 -49.4454 230° Southwest 478 550 40,000  Level FlightAware Transoceanic
04:36PM 24.3445 -49.5566 230° Southwest 478 550 40,000  Level FlightAware Transoceanic
04:37PM 24.2585 -49.6677 230° Southwest 478 550 40,000  Level FlightAware Transoceanic
04:38PM 24.1724 -49.7786 230° Southwest 478 550 40,000  Level FlightAware Transoceanic
04:39PM 24.0862 -49.8894 230° Southwest 478 550 40,000  Level FlightAware Transoceanic
04:40PM 24.0000 -50.0000 233° Southwest 478 550 40,000  Level FlightAware Transoceanic
04:41PM 23.9205 -50.1142 233° Southwest 478 550 40,000  Level FlightAware Transoceanic
04:42PM 23.8409 -50.2282 233° Southwest 478 550 40,000  Level FlightAware Transoceanic
04:43PM 23.7612 -50.3421 233° Southwest 478 550 40,000  Level FlightAware Transoceanic
04:44PM 23.6815 -50.4559 233° Southwest 478 550 40,000  Level FlightAware Transoceanic
04:44PM 24.0000 -50.0000 233° Southwest 471 542 40,000  Level New York Oceanic (ODAPS)
04:45PM 23.6017 -50.5695 232° Southwest 478 550 40,000  Level FlightAware Transoceanic
04:46PM 23.5217 -50.6830 232° Southwest 478 550 40,000  Level FlightAware Transoceanic
04:47PM 23.4418 -50.7963 232° Southwest 478 550 40,000  Level FlightAware Transoceanic
04:48PM 23.3617 -50.9095 232° Southwest 478 550 40,000  Level FlightAware Transoceanic
04:49PM 23.2815 -51.0226 232° Southwest 478 550 40,000  Level FlightAware Transoceanic
04:50PM 23.2013 -51.1355 232° Southwest 478 550 40,000  Level FlightAware Transoceanic
04:51PM 23.2815 -51.0226 232° Southwest 471 542 40,000  Level FlightAware Transoceanic
04:52PM 23.2013 -51.1355 232° Southwest 471 542 40,000  Level FlightAware Transoceanic
04:53PM 23.1210 -51.2483 232° Southwest 471 542 40,000  Level FlightAware Transoceanic
04:54PM 23.0406 -51.3610 232° Southwest 471 542 40,000  Level FlightAware Transoceanic
04:55PM 22.9601 -51.4735 232° Southwest 471 542 40,000  Level FlightAware Transoceanic
04:56PM 22.8795 -51.5859 232° Southwest 471 542 40,000  Level FlightAware Transoceanic
04:57PM 22.7989 -51.6982 232° Southwest 471 542 40,000  Level FlightAware Transoceanic
04:58PM 22.7181 -51.8103 232° Southwest 471 542 40,000  Level FlightAware Transoceanic
04:59PM 22.6374 -51.9223 232° Southwest 471 542 40,000  Level FlightAware Transoceanic
05:00PM 22.5565 -52.0342 232° Southwest 471 542 40,000  Level FlightAware Transoceanic
05:01PM 22.4755 -52.1459 232° Southwest 471 542 40,000  Level FlightAware Transoceanic
05:02PM 22.3945 -52.2575 232° Southwest 471 542 40,000  Level FlightAware Transoceanic
05:03PM 22.3134 -52.3690 232° Southwest 471 542 40,000  Level FlightAware Transoceanic
05:04PM 22.2322 -52.4803 232° Southwest 471 542 40,000  Level FlightAware Transoceanic
05:05PM 22.1509 -52.5915 232° Southwest 471 542 40,000  Level FlightAware Transoceanic
05:06PM 22.0696 -52.7026 232° Southwest 471 542 40,000  Level FlightAware Transoceanic
05:07PM 21.9882 -52.8136 232° Southwest 471 542 40,000  Level FlightAware Transoceanic
05:08PM 21.9067 -52.9244 232° Southwest 471 542 40,000  Level FlightAware Transoceanic
05:09PM 21.8252 -53.0351 232° Southwest 471 542 40,000  Level FlightAware Transoceanic
05:10PM 21.7435 -53.1457 231° Southwest 471 542 40,000  Level FlightAware Transoceanic
05:11PM 21.6618 -53.2562 231° Southwest 471 542 40,000  Level FlightAware Transoceanic
05:12PM 21.5801 -53.3665 231° Southwest 471 542 40,000  Level FlightAware Transoceanic
05:13PM 21.4982 -53.4767 231° Southwest 471 542 40,000  Level FlightAware Transoceanic
05:14PM 21.4163 -53.5868 231° Southwest 471 542 40,000  Level FlightAware Transoceanic
05:15PM 21.3343 -53.6967 231° Southwest 471 542 40,000  Level FlightAware Transoceanic
05:16PM 21.2522 -53.8065 231° Southwest 471 542 40,000  Level FlightAware Transoceanic
05:17PM 21.1701 -53.9163 231° Southwest 471 542 40,000  Level FlightAware Transoceanic
05:18PM 21.0879 -54.0258 231° Southwest 471 542 40,000  Level FlightAware Transoceanic
05:19PM 21.0056 -54.1353 231° Southwest 471 542 40,000  Level FlightAware Transoceanic
05:20PM 20.9233 -54.2447 231° Southwest 471 542 40,000  Level FlightAware Transoceanic
05:21PM 20.8409 -54.3539 231° Southwest 471 542 40,000  Level FlightAware Transoceanic
05:22PM 20.7584 -54.4630 231° Southwest 471 542 40,000  Level FlightAware Transoceanic
05:23PM 20.6758 -54.5720 231° Southwest 471 542 40,000  Level FlightAware Transoceanic
05:24PM 20.5932 -54.6809 231° Southwest 471 542 40,000  Level FlightAware Transoceanic
05:25PM 20.5105 -54.7896 231° Southwest 471 542 40,000  Level FlightAware Transoceanic
05:26PM 20.4278 -54.8982 231° Southwest 471 542 40,000  Level FlightAware Transoceanic
05:27PM 20.3449 -55.0068 231° Southwest 471 542 40,000  Level FlightAware Transoceanic
05:28PM 20.2621 -55.1152 231° Southwest 471 542 40,000  Level FlightAware Transoceanic
05:29PM 20.1791 -55.2234 231° Southwest 471 542 40,000  Level FlightAware Transoceanic
05:30PM 20.0961 -55.3316 231° Southwest 471 542 40,000  Level FlightAware Transoceanic
05:31PM 20.0130 -55.4397 231° Southwest 471 542 40,000  Level FlightAware Transoceanic
05:32PM 19.9298 -55.5476 231° Southwest 471 542 40,000  Level FlightAware Transoceanic
05:33PM 19.8466 -55.6554 231° Southwest 471 542 40,000  Level FlightAware Transoceanic
05:34PM 19.7633 -55.7631 231° Southwest 471 542 40,000  Level FlightAware Transoceanic
05:35PM 19.6800 -55.8708 231° Southwest 471 542 40,000  Level FlightAware Transoceanic
05:36PM 19.5965 -55.9782 230° Southwest 471 542 40,000  Level FlightAware Transoceanic
05:37PM 19.5131 -56.0856 230° Southwest 471 542 40,000  Level FlightAware Transoceanic
05:38PM 19.4295 -56.1929 230° Southwest 471 542 40,000  Level FlightAware Transoceanic
05:39PM 19.3459 -56.3000 230° Southwest 471 542 40,000  Level FlightAware Transoceanic
05:40PM 19.2623 -56.4071 230° Southwest 471 542 40,000  Level FlightAware Transoceanic
05:41PM 19.1785 -56.5140 230° Southwest 471 542 40,000  Level FlightAware Transoceanic
05:42PM 19.0947 -56.6209 230° Southwest 471 542 40,000  Level FlightAware Transoceanic
05:43PM 19.0109 -56.7276 230° Southwest 471 542 40,000  Level FlightAware Transoceanic
05:44PM 18.9270 -56.8342 230° Southwest 471 542 40,000  Level FlightAware Transoceanic
05:45PM 18.8430 -56.9407 230° Southwest 471 542 40,000  Level FlightAware Transoceanic
05:46PM 18.7590 -57.0471 230° Southwest 471 542 40,000  Level FlightAware Transoceanic
05:47PM 18.6749 -57.1534 230° Southwest 471 542 40,000  Level FlightAware Transoceanic
05:48PM 18.5907 -57.2596 230° Southwest 471 542 40,000  Level FlightAware Transoceanic
05:49PM 18.5065 -57.3657 230° Southwest 471 542 40,000  Level FlightAware Transoceanic
05:50PM 18.4222 -57.4716 230° Southwest 471 542 40,000  Level FlightAware Transoceanic
05:51PM 18.3379 -57.5775 230° Southwest 471 542 40,000  Level FlightAware Transoceanic
05:52PM 18.2535 -57.6833 230° Southwest 471 542 40,000  Level FlightAware Transoceanic
05:53PM 18.1691 -57.7890 230° Southwest 471 542 40,000  Level FlightAware Transoceanic
05:54PM 18.0846 -57.8945 230° Southwest 471 542 40,000  Level FlightAware Transoceanic
05:55PM 18.0000 -58.0000 221° Southwest 471 542 40,000  Level FlightAware Transoceanic
05:56PM 17.8971 -58.0930 221° Southwest 471 542 40,000  Level FlightAware Transoceanic
05:57PM 17.7942 -58.1859 221° Southwest 471 542 40,000  Level FlightAware Transoceanic
05:58PM 17.6912 -58.2787 221° Southwest 471 542 40,000  Level FlightAware Transoceanic
05:59PM 17.5882 -58.3714 221° Southwest 471 542 40,000  Level FlightAware Transoceanic
06:00PM 17.4852 -58.4640 221° Southwest 471 542 40,000  Level FlightAware Transoceanic
06:01PM 17.3821 -58.5565 221° Southwest 471 542 40,000  Level FlightAware Transoceanic
06:02PM 17.2789 -58.6489 221° Southwest 471 542 40,000  Level FlightAware Transoceanic
06:03PM 17.1757 -58.7412 220° Southwest 471 542 40,000  Level FlightAware Transoceanic
06:03PM 17.1700 -58.8530 220° Southwest 494 568 40,000  Level FlightAware
06:04PM 17.0725 -58.8334 220° Southwest 471 542 40,000  Level FlightAware Transoceanic
06:04PM 17.1150 -58.9160 228° Southwest 495 570 40,000  Level FlightAware
06:04PM 17.0600 -58.9790 228° Southwest 496 571 40,000  Level FlightAware
06:05PM 17.0050 -59.0410 227° Southwest 495 570 40,000  Level FlightAware
06:05PM 16.9550 -59.0980 227° Southwest 495 570 40,000  Level FlightAware
06:06PM 16.8960 -59.1660 228° Southwest 494 568 40,000  Level FlightAware
06:06PM 16.8400 -59.2310 228° Southwest 494 568 40,000  Level FlightAware
06:07PM 16.7950 -59.2810 227° Southwest 493 567 40,000  Level FlightAware
06:08PM 16.7330 -59.3520 228° Southwest 492 566 40,000  Level FlightAware
06:08PM 16.6830 -59.4090 228° Southwest 492 566 40,000  Level FlightAware
06:09PM 16.6180 -59.4840 228° Southwest 491 565 40,000  Level FlightAware
06:09PM 16.5690 -59.5390 227° Southwest 491 565 40,000  Level FlightAware
06:10PM 16.5080 -59.6090 228° Southwest 491 565 40,000  Level FlightAware
06:11PM 16.4450 -59.6810 228° Southwest 489 563 40,000  Level FlightAware
06:11PM 16.3970 -59.7340 227° Southwest 489 563 40,000  Level FlightAware
06:12PM 16.3420 -59.7970 228° Southwest 489 563 40,000  Level FlightAware
06:12PM 16.2870 -59.8590 227° Southwest 489 563 40,000  Level FlightAware
06:13PM 16.2300 -59.9230 227° Southwest 491 565 40,000  Level FlightAware
06:14PM 16.1810 -59.9790 228° Southwest 491 565 40,000  Level FlightAware
06:14PM 16.1270 -60.0400 227° Southwest 491 565 40,000  Level FlightAware
06:15PM 16.0690 -60.1060 228° Southwest 492 566 40,000  Level FlightAware
06:15PM 16.0150 -60.1660 227° Southwest 494 568 40,000  Level FlightAware
06:16PM 15.9630 -60.2250 227° Southwest 494 568 40,000  Level FlightAware
06:17PM 15.8940 -60.3030 227° Southwest 494 568 40,000  Level FlightAware
06:17PM 15.8400 -60.3640 227° Southwest 493 567 40,000  Level FlightAware
06:18PM 15.7840 -60.4260 227° Southwest 491 565 40,000  Level FlightAware
06:18PM 15.7340 -60.4820 227° Southwest 491 565 40,000  Level FlightAware
06:19PM 15.6790 -60.5440 227° Southwest 490 564 40,000  Level FlightAware
06:20PM 15.6260 -60.6040 227° Southwest 490 564 40,000  Level FlightAware
06:20PM 15.5760 -60.6590 227° Southwest 489 563 40,000  Level FlightAware
06:21PM 15.5120 -60.7310 227° Southwest 488 562 40,000  Level FlightAware
06:21PM 15.4700 -60.7780 227° Southwest 488 562 40,000  Level FlightAware
06:22PM 15.4080 -60.8470 227° Southwest 487 560 40,000  Level FlightAware
06:23PM 15.3590 -60.9010 227° Southwest 487 560 40,000  Level FlightAware
06:23PM 15.3030 -60.9640 227° Southwest 487 560 40,000  Level FlightAware
06:24PM 15.2490 -61.0250 227° Southwest 487 560 40,000  Level FlightAware
06:24PM 15.2040 -61.0750 227° Southwest 487 560 40,000  Level FlightAware
06:25PM 15.1420 -61.1440 227° Southwest 490 564 40,000  Level FlightAware
06:25PM 15.0820 -61.2100 227° Southwest 491 565 40,000  Level FlightAware
06:26PM 15.0340 -61.2630 227° Southwest 492 566 40,000  Level FlightAware
06:27PM 14.9810 -61.3210 227° Southwest 491 565 40,000  Level FlightAware
06:27PM 14.9250 -61.3840 227° Southwest 491 565 40,000  Level FlightAware
06:28PM 14.8760 -61.4390 227° Southwest 492 566 40,000  Level FlightAware
06:28PM 14.8240 -61.4960 227° Southwest 494 568 40,000  Level FlightAware
06:29PM 14.7590 -61.5680 227° Southwest 494 568 40,000  Level FlightAware
06:29PM 14.7170 -61.6150 227° Southwest 494 568 40,000  Level FlightAware
06:30PM 14.6440 -61.6950 227° Southwest 495 570 40,000  Level FlightAware
06:31PM 14.5990 -61.7450 227° Southwest 496 571 40,000  Level FlightAware
06:31PM 14.5440 -61.8050 227° Southwest 497 572 40,000  Level FlightAware
06:32PM 14.4800 -61.8750 227° Southwest 498 573 40,000  Level FlightAware
06:32PM 14.4330 -61.9270 227° Southwest 499 574 40,000  Level FlightAware
06:33PM 14.3820 -61.9840 227° Southwest 500 575 40,000  Level FlightAware
06:34PM 14.3230 -62.0490 227° Southwest 500 575 40,000  Level FlightAware
06:34PM 14.2680 -62.1090 227° Southwest 500 575 40,000  Level FlightAware
06:35PM 14.2040 -62.1790 227° Southwest 499 574 40,000  Level FlightAware
06:35PM 14.1610 -62.2260 227° Southwest 499 574 40,000  Level FlightAware
06:36PM 14.1000 -62.2930 227° Southwest 500 575 40,000  Level FlightAware
06:36PM 14.0430 -62.3550 227° Southwest 501 577 40,000  Level FlightAware
06:37PM 13.9890 -62.4150 227° Southwest 500 575 40,000  Level FlightAware
06:38PM 13.9350 -62.4730 226° Southwest 496 571 40,000  Level FlightAware
06:38PM 13.8770 -62.5370 227° Southwest 495 570 40,000  Level FlightAware
06:39PM 13.8180 -62.6010 226° Southwest 494 568 40,000  Level FlightAware
06:39PM 13.7700 -62.6530 226° Southwest 493 567 40,000  Level FlightAware
06:40PM 13.7120 -62.7170 227° Southwest 492 566 40,000  Level FlightAware
06:41PM 13.6640 -62.7680 226° Southwest 493 567 40,000  Level FlightAware
06:41PM 13.5990 -62.8400 227° Southwest 492 566 40,000  Level FlightAware
06:42PM 13.5510 -62.8910 226° Southwest 493 567 40,000  Level FlightAware
06:43PM 13.4850 -62.9620 226° Southwest 492 566 40,000  Level FlightAware
06:43PM 13.4270 -63.0260 227° Southwest 493 567 40,000  Level FlightAware
06:44PM 13.3570 -63.1020 227° Southwest 493 567 40,000  Level FlightAware
06:45PM 13.3070 -63.1550 226° Southwest 493 567 40,000  Level FlightAware
06:45PM 13.2580 -63.2070 226° Southwest 493 567 40,000  Level FlightAware
06:46PM 13.2120 -63.2550 225° Southwest 493 567 40,000  Level FlightAware
06:46PM 13.1180 -63.3620 228° Southwest 492 566 40,000  Level FlightAware
06:47PM 13.0620 -63.4210 226° Southwest 492 566 40,000  Level FlightAware
06:48PM 13.0110 -63.4750 226° Southwest 492 566 40,000  Level FlightAware
06:48PM 12.9630 -63.5260 226° Southwest 492 566 40,000  Level FlightAware
06:49PM 12.8810 -63.6170 227° Southwest 497 572 40,000  Level FlightAware
06:49PM 12.8340 -63.6750 230° Southwest 496 571 40,000  Level FlightAware
06:50PM 12.7720 -63.7670 235° Southwest 495 570 40,000  Level FlightAware
06:51PM 12.7230 -63.8440 237° Southwest 494 568 40,000  Level FlightAware
06:51PM 12.6750 -63.9200 237° Southwest 493 567 40,000  Level FlightAware
06:52PM 12.6170 -64.0100 237° Southwest 493 567 40,000  Level FlightAware
06:53PM 12.5640 -64.0910 236° Southwest 493 567 40,000  Level FlightAware
06:54PM 12.5160 -64.1660 237° Southwest 493 567 40,000  Level FlightAware
06:54PM 12.4770 -64.2250 236° Southwest 493 567 40,000  Level FlightAware
06:55PM 12.4210 -64.3150 238° Southwest 490 564 40,000  Level FlightAware
06:55PM 12.3770 -64.3810 236° Southwest 489 563 40,000  Level FlightAware
06:56PM 12.3400 -64.4380 236° Southwest 490 564 40,000  Level FlightAware
06:56PM 12.2900 -64.5150 236° Southwest 491 565 40,000  Level FlightAware
06:57PM 12.2440 -64.6070 243° Southwest 490 564 40,000  Level FlightAware
06:58PM 12.2130 -64.6700 243° Southwest 490 564 40,000  Level FlightAware
06:59PM 12.1810 -64.7330 243° Southwest 490 564 40,000  Level FlightAware
06:59PM 12.1500 -64.7970 244° Southwest 490 564 40,000  Level FlightAware
07:00PM 12.0970 -64.9020 243° Southwest 485 558 40,000  Level FlightAware
07:00PM 12.0610 -64.9740 243° Southwest 486 559 40,000  Level FlightAware
07:01PM 12.0250 -65.0460 243° Southwest 486 559 40,000  Level FlightAware
07:02PM 11.9800 -65.1370 243° Southwest 487 560 40,000  Level FlightAware
07:02PM 11.9480 -65.2010 243° Southwest 491 565 40,000  Level FlightAware
07:03PM 11.9070 -65.2820 243° Southwest 491 565 40,000  Level FlightAware
07:03PM 11.8710 -65.3540 243° Southwest 490 564 40,000  Level FlightAware
07:04PM 11.8340 -65.4270 243° Southwest 490 564 40,000  Level FlightAware
07:04PM 11.7990 -65.4980 243° Southwest 485 558 40,000  Level FlightAware
07:05PM 11.7680 -65.5600 243° Southwest 489 563 40,000  Level FlightAware
07:06PM 11.7320 -65.6320 243° Southwest 489 563 40,000  Level FlightAware
07:06PM 11.6900 -65.7140 242° Southwest 490 564 40,000  Level FlightAware
07:07PM 11.6590 -65.7760 243° Southwest 492 566 40,000  Level FlightAware
07:07PM 11.6220 -65.8490 243° Southwest 492 566 40,000  Level FlightAware
07:08PM 11.5810 -65.9310 243° Southwest 493 567 40,000  Level FlightAware
07:09PM 11.5440 -66.0050 243° Southwest 494 568 40,000  Level FlightAware
07:09PM 11.5130 -66.0650 242° Southwest 495 570 40,000  Level FlightAware
07:10PM 11.4760 -66.1380 243° Southwest 496 571 40,000  Level FlightAware
07:10PM 11.4340 -66.2220 243° Southwest 496 571 40,000  Level FlightAware
07:11PM 11.4010 -66.2860 242° Southwest 496 571 40,000  Level FlightAware
07:11PM 11.3670 -66.3540 243° Southwest 496 571 40,000  Level FlightAware
07:12PM 11.3230 -66.4410 243° Southwest 494 568 40,000  Level FlightAware
07:13PM 11.2870 -66.5110 242° Southwest 495 570 40,000  Level FlightAware
07:13PM 11.2550 -66.5730 242° Southwest 495 570 40,000  Level FlightAware
07:14PM 11.2130 -66.6560 243° Southwest 495 570 40,000  Level FlightAware
07:14PM 11.1810 -66.7190 243° Southwest 495 570 40,000  Level FlightAware
07:15PM 11.1440 -66.7910 242° Southwest 496 571 40,000  Level FlightAware
07:16PM 11.1010 -66.8760 243° Southwest 496 571 40,000  Level FlightAware
07:16PM 11.0690 -66.9390 243° Southwest 496 571 40,000  Level FlightAware
07:17PM 11.0320 -67.0110 242° Southwest 495 570 40,000  Level FlightAware
07:17PM 10.9910 -67.0920 243° Southwest 496 571 40,000  Level FlightAware
07:18PM 10.9530 -67.1660 242° Southwest 496 571 40,000  Level FlightAware
07:18PM 10.9200 -67.2300 242° Southwest 497 572 40,000  Level FlightAware
07:19PM 10.8840 -67.3000 242° Southwest 497 572 40,000  Level FlightAware
07:20PM 10.8410 -67.3850 243° Southwest 498 573 40,000  Level FlightAware
07:20PM 10.8040 -67.4570 242° Southwest 496 571 40,000  Level FlightAware
07:21PM 10.7710 -67.5200 242° Southwest 492 566 40,000  Level FlightAware
07:21PM 10.7330 -67.5880 240° Southwest 492 566 40,000  Level FlightAware
07:22PM 10.6920 -67.6610 240° Southwest 497 572 40,000  Level FlightAware
07:23PM 10.6470 -67.7400 240° Southwest 498 573 40,000  Level FlightAware
07:23PM 10.6120 -67.8030 241° Southwest 497 572 40,000  Level FlightAware
07:24PM 10.5730 -67.8740 241° Southwest 497 572 40,000  Level FlightAware
07:24PM 10.5330 -67.9450 240° Southwest 497 572 40,000  Level FlightAware
07:25PM 10.4920 -68.0180 240° Southwest 496 571 40,000  Level FlightAware
07:25PM 10.4530 -68.0890 241° Southwest 494 568 40,000  Level FlightAware
07:26PM 10.4130 -68.1600 240° Southwest 493 567 40,000  Level FlightAware
07:27PM 10.3740 -68.2300 240° Southwest 493 567 40,000  Level FlightAware
07:27PM 10.3340 -68.3020 241° Southwest 491 565 40,000  Level FlightAware
07:28PM 10.2940 -68.3730 240° Southwest 492 566 40,000  Level FlightAware
07:28PM 10.2550 -68.4420 240° Southwest 493 567 40,000  Level FlightAware
07:29PM 10.2100 -68.5230 241° Southwest 496 571 40,000  Level FlightAware
07:30PM 10.1700 -68.5950 241° Southwest 498 573 40,000  Level FlightAware
07:30PM 10.1300 -68.6660 240° Southwest 499 574 40,000  Level FlightAware
07:31PM 10.0900 -68.7370 240° Southwest 497 572 40,000  Level FlightAware
07:31PM 10.0500 -68.8080 240° Southwest 498 573 40,000  Level FlightAware
07:32PM 10.0090 -68.8800 240° Southwest 499 574 40,000  Level FlightAware
07:33PM 9.9690 -68.9510 240° Southwest 498 573 40,000  Level FlightAware
07:33PM 9.9260 -69.0280 240° Southwest 497 572 40,000  Level FlightAware
07:34PM 9.8850 -69.1000 240° Southwest 497 572 40,000  Level FlightAware
07:34PM 9.8440 -69.1740 241° Southwest 499 574 40,000  Level FlightAware
07:35PM 9.7990 -69.2530 240° Southwest 499 574 40,000  Level FlightAware
07:36PM 9.7590 -69.3240 240° Southwest 500 575 40,000  Level FlightAware
07:37PM 9.6970 -69.4350 240° Southwest 500 575 40,000  Level FlightAware
07:37PM 9.6410 -69.5330 240° Southwest 500 575 40,000  Level FlightAware
07:38PM 9.6020 -69.6020 240° Southwest 500 575 40,000  Level FlightAware
07:38PM 9.5690 -69.6590 240° Southwest 499 574 40,000  Level FlightAware
07:39PM 9.5170 -69.7520 240° Southwest 500 575 40,000  Level FlightAware
07:40PM 9.4580 -69.8560 240° Southwest 501 577 40,000  Level FlightAware
07:41PM 9.4240 -69.9190 241° Southwest 501 577 40,000  Level FlightAware
07:41PM 9.3640 -70.0220 239° Southwest 496 571 40,000  Level FlightAware
07:42PM 9.3260 -70.0880 240° Southwest 497 572 40,000  Level FlightAware
07:42PM 9.2820 -70.1650 240° Southwest 497 572 40,000  Level FlightAware
07:43PM 9.2390 -70.2430 241° Southwest 497 572 40,000  Level FlightAware
07:44PM 9.1930 -70.3210 239° Southwest 495 570 40,000  Level FlightAware
07:44PM 9.1560 -70.3900 241° Southwest 495 570 40,000  Level FlightAware
07:45PM 9.1220 -70.4520 241° Southwest 495 570 40,000  Level FlightAware
07:46PM 9.0570 -70.5600 239° Southwest 494 568 40,000  Level FlightAware
07:46PM 9.0090 -70.6440 240° Southwest 495 570 40,000  Level FlightAware
07:47PM 8.9690 -70.7140 240° Southwest 496 571 40,000  Level FlightAware
07:48PM 8.9080 -70.8200 240° Southwest 496 571 40,000  Level FlightAware
07:49PM 8.8720 -70.8840 240° Southwest 496 571 40,000  Level FlightAware
07:49PM 8.8370 -70.9450 240° Southwest 496 571 40,000  Level FlightAware
07:50PM 8.8020 -71.0070 240° Southwest 496 571 40,000  Level FlightAware
07:50PM 8.7670 -71.0680 240° Southwest 496 571 40,000  Level FlightAware
07:51PM 8.7320 -71.1300 240° Southwest 496 571 40,000  Level FlightAware
07:52PM 8.6970 -71.1910 240° Southwest 496 571 40,000  Level FlightAware
07:52PM 8.6620 -71.2530 240° Southwest 496 571 40,000  Level FlightAware
07:53PM 8.6260 -71.3140 239° Southwest 496 571 40,000  Level FlightAware
07:53PM 8.5910 -71.3760 240° Southwest 496 571 40,000  Level FlightAware
07:54PM 8.5560 -71.4370 240° Southwest 496 571 40,000  Level FlightAware
07:55PM 8.5210 -71.4990 240° Southwest 496 571 40,000  Level FlightAware
07:55PM 8.4860 -71.5600 240° Southwest 496 571 40,000  Level FlightAware
07:56PM 8.4500 -71.6230 240° Southwest 496 571 40,000  Level FlightAware
07:56PM 8.4150 -71.6850 240° Southwest 496 571 40,000  Level FlightAware
07:57PM 8.3800 -71.7460 240° Southwest 496 571 40,000  Level FlightAware
08:00PM 8.2161 -72.0412 241° Southwest  Level Estimated
08:01PM 8.1514 -72.1577 241° Southwest  Level Estimated
08:02PM 8.0866 -72.2741 241° Southwest  Level Estimated
08:03PM 8.0218 -72.3904 241° Southwest  Level Estimated
08:04PM 7.9569 -72.5068 241° Southwest  Level Estimated
08:05PM 7.8920 -72.6231 241° Southwest  Level Estimated
08:06PM 7.8271 -72.7394 241° Southwest  Level Estimated
08:07PM 7.7621 -72.8556 241° Southwest  Level Estimated
08:08PM 7.6972 -72.9718 241° Southwest  Level Estimated
08:09PM 7.6322 -73.0880 241° Southwest  Level Estimated
08:10PM 7.5671 -73.2041 241° Southwest  Level Estimated
08:11PM 7.5020 -73.3202 241° Southwest  Level Estimated
08:12PM 7.4370 -73.4362 241° Southwest  Level Estimated
08:13PM 7.3718 -73.5523 240° Southwest  Level Estimated
08:14PM 7.3067 -73.6683 240° Southwest  Level Estimated
08:15PM 7.2415 -73.7842 240° Southwest  Level Estimated
08:16PM 7.1762 -73.9001 240° Southwest  Level Estimated
08:17PM 7.1110 -74.0160 240° Southwest  Level Estimated
08:18PM 7.0457 -74.1319 240° Southwest  Level Estimated
08:19PM 6.9804 -74.2477 240° Southwest  Level Estimated
08:20PM 6.9151 -74.3635 240° Southwest  Level Estimated
08:21PM 6.8497 -74.4792 240° Southwest  Level Estimated
08:22PM 6.7843 -74.5950 240° Southwest  Level Estimated
08:23PM 6.7189 -74.7107 240° Southwest  Level Estimated
08:24PM 6.6535 -74.8263 240° Southwest  Level Estimated
08:25PM 6.5880 -74.9420 240° Southwest  Level Estimated
08:26PM 6.5225 -75.0576 240° Southwest  Level Estimated
08:27PM 6.4570 -75.1731 240° Southwest  Level Estimated
08:28PM 6.3914 -75.2887 240° Southwest  Level Estimated
08:29PM 6.3258 -75.4042 240° Southwest  Level Estimated
08:30PM 6.2602 -75.5197 240° Southwest  Level Estimated
08:31PM 6.2200 -75.5905 240° Southwest  Level Estimated
08:32PM 6.2200 -75.5905 154° Southeast  Level Estimated
08:33PM 6.2200 -75.5905 154° Southeast  Level Estimated
08:34PM 6.2200 -75.5905 154° Southeast  Level Estimated
08:35PM 6.2200 -75.5905 154° Southeast  Level Estimated
08:36PM 6.2200 -75.5905 154° Southeast  Level Estimated
08:37PM 6.2200 -75.5905 154° Southeast  Level Estimated
08:38PM 6.2200 -75.5905 154° Southeast  Level Estimated
08:39PM 6.2200 -75.5905 154° Southeast  Level Estimated
08:40PM 6.2200 -75.5905 154° Southeast  Level Estimated